Time;durP1;ratioP1;P1;durP2;ratioP2;P2;SDS_P1;SDS_P2;PMS_P1;PMS_P2;Temp;Humidity;BMP_temperature;BMP_pressure;BME280_temperature;BME280_humidity;BME280_pressure;Samples;Min_cycle;Max_cycle;Signal;HPM_P1;HPM_P2
2023/03/09 00:02:40;;;;;;;25.07;11.70;;;2.90;99.90;;;;;;7837638;28;20206;-91
2023/03/09 00:06:26;;;;;;;23.93;12.73;;;2.90;99.90;;;;;;7839004;28;20201;-92
2023/03/09 00:10:13;;;;;;;23.30;12.13;;;2.90;99.90;;;;;;7840589;28;20679;-91
2023/03/09 00:13:59;;;;;;;24.63;11.93;;;2.90;99.90;;;;;;7844704;28;20708;-90
2023/03/09 00:17:45;;;;;;;23.70;12.20;;;2.90;99.90;;;;;;7837425;28;20572;-90
2023/03/09 00:21:40;;;;;;;24.03;13.03;;;2.80;99.90;;;;;;7837114;28;20178;-90
2023/03/09 00:25:28;;;;;;;24.63;13.70;;;2.90;99.90;;;;;;7837076;28;20197;-90
2023/03/09 00:29:14;;;;;;;25.70;13.53;;;2.80;99.90;;;;;;7837442;28;20228;-90
2023/03/09 00:33:00;;;;;;;22.93;12.73;;;2.90;99.90;;;;;;7836994;28;20240;-89
2023/03/09 00:36:45;;;;;;;25.60;13.10;;;3.00;99.90;;;;;;7837069;28;20170;-89
2023/03/09 00:40:31;;;;;;;23.33;12.70;;;2.90;99.90;;;;;;7837361;28;20214;-90
2023/03/09 00:44:17;;;;;;;26.33;13.03;;;2.90;99.90;;;;;;7836900;28;20225;-91
2023/03/09 00:48:03;;;;;;;24.90;13.20;;;2.90;99.90;;;;;;7836944;28;20182;-91
2023/03/09 00:51:48;;;;;;;24.37;13.17;;;2.90;99.90;;;;;;7837693;28;20205;-91
2023/03/09 00:55:34;;;;;;;26.37;13.77;;;2.90;99.90;;;;;;7845692;28;20194;-89
2023/03/09 00:59:19;;;;;;;27.40;13.87;;;3.00;99.90;;;;;;7842572;28;20270;-89
2023/03/09 01:03:05;;;;;;;26.23;13.90;;;2.90;99.90;;;;;;7842194;28;20230;-90
2023/03/09 01:06:54;;;;;;;26.57;14.77;;;2.90;99.90;;;;;;7843663;28;20178;-91
2023/03/09 01:10:41;;;;;;;28.90;14.10;;;2.80;99.90;;;;;;7841959;28;20259;-90
2023/03/09 01:14:26;;;;;;;26.90;14.20;;;2.90;99.90;;;;;;7841891;28;20210;-89
2023/03/09 01:18:12;;;;;;;27.57;14.00;;;2.80;99.90;;;;;;7842107;28;20223;-90
2023/03/09 01:21:58;;;;;;;27.30;14.50;;;2.90;99.90;;;;;;7841840;28;20551;-90
2023/03/09 01:25:43;;;;;;;25.53;14.27;;;2.80;99.90;;;;;;7845803;28;20244;-92
2023/03/09 01:29:29;;;;;;;27.63;14.60;;;2.90;99.90;;;;;;7880469;28;20182;-91
2023/03/09 01:33:14;;;;;;;29.43;15.17;;;2.90;99.90;;;;;;7842114;28;20221;-90
2023/03/09 01:37:00;;;;;;;28.07;14.73;;;2.90;99.90;;;;;;7841342;28;20210;-90
2023/03/09 01:40:47;;;;;;;25.53;14.07;;;2.80;99.90;;;;;;7841201;28;20182;-90
2023/03/09 01:44:32;;;;;;;27.57;14.73;;;3.00;99.90;;;;;;7842422;28;20202;-89
2023/03/09 01:48:18;;;;;;;26.40;13.80;;;2.80;99.90;;;;;;7841096;28;20189;-91
2023/03/09 01:52:16;;;;;;;29.53;14.70;;;2.90;99.90;;;;;;7843386;28;20210;-90
2023/03/09 01:56:02;;;;;;;26.53;13.33;;;2.80;99.90;;;;;;7840830;28;20181;-90
2023/03/09 01:59:51;;;;;;;28.67;14.77;;;2.90;99.90;;;;;;7840482;28;20181;-90
2023/03/09 02:03:39;;;;;;;29.70;14.37;;;2.90;99.90;;;;;;7839112;28;20205;-90
2023/03/09 02:07:39;;;;;;;27.97;14.87;;;2.90;99.90;;;;;;7840164;28;20171;-90
2023/03/09 02:11:26;;;;;;;26.70;14.87;;;2.90;99.90;;;;;;7840004;28;20271;-90
2023/03/09 02:15:12;;;;;;;29.33;14.63;;;2.90;99.90;;;;;;7839767;28;20209;-91
2023/03/09 02:18:59;;;;;;;30.67;13.60;;;3.00;99.90;;;;;;7839935;28;20162;-90
2023/03/09 02:22:47;;;;;;;31.53;15.00;;;2.90;99.90;;;;;;7840127;28;20198;-90
2023/03/09 02:26:49;;;;;;;26.80;14.33;;;2.90;99.90;;;;;;7839601;28;20185;-91
2023/03/09 02:30:39;;;;;;;34.50;16.57;;;2.90;99.90;;;;;;7839981;28;20252;-91
2023/03/09 02:34:25;;;;;;;33.27;15.93;;;2.90;99.90;;;;;;7839141;28;20256;-90
2023/03/09 02:38:15;;;;;;;31.40;15.77;;;3.00;99.90;;;;;;7840737;28;20154;-90
2023/03/09 02:42:02;;;;;;;32.23;15.97;;;2.80;99.90;;;;;;7839565;28;20205;-90
2023/03/09 02:45:49;;;;;;;34.30;16.73;;;2.90;99.90;;;;;;7838871;28;20170;-91
2023/03/09 02:49:35;;;;;;;30.93;15.50;;;2.90;99.90;;;;;;7839020;28;20200;-92
2023/03/09 02:53:21;;;;;;;35.47;16.57;;;2.90;99.90;;;;;;7840137;28;20285;-91
2023/03/09 02:57:07;;;;;;;30.43;15.87;;;2.90;99.90;;;;;;7838912;28;20174;-91
2023/03/09 03:01:16;;;;;;;29.43;14.93;;;2.90;99.90;;;;;;7838911;28;20178;-90
2023/03/09 03:05:02;;;;;;;30.57;15.67;;;3.00;99.90;;;;;;7837968;28;20201;-90
2023/03/09 03:08:48;;;;;;;30.90;15.33;;;2.90;99.90;;;;;;7820497;28;20178;-90
2023/03/09 03:12:33;;;;;;;33.03;16.93;;;2.90;99.90;;;;;;7807156;28;20268;-90
2023/03/09 03:16:19;;;;;;;33.13;16.33;;;3.00;99.90;;;;;;7807444;28;20333;-91
2023/03/09 03:20:11;;;;;;;32.13;16.10;;;3.00;99.90;;;;;;7808927;28;20171;-90
2023/03/09 03:23:57;;;;;;;34.03;16.50;;;3.00;99.90;;;;;;7808130;28;20194;-90
2023/03/09 03:27:43;;;;;;;30.83;16.00;;;2.90;99.90;;;;;;7846269;28;20166;-91
2023/03/09 03:31:29;;;;;;;32.23;16.63;;;3.00;99.90;;;;;;7812046;28;20305;-90
2023/03/09 03:35:16;;;;;;;35.87;16.77;;;3.00;99.90;;;;;;7809679;28;20202;-90
2023/03/09 03:39:03;;;;;;;35.03;17.67;;;3.00;99.90;;;;;;7808421;28;20695;-90
2023/03/09 03:42:48;;;;;;;33.97;16.83;;;3.10;99.90;;;;;;7807049;28;20217;-90
2023/03/09 03:46:34;;;;;;;31.53;16.40;;;2.90;99.90;;;;;;7807045;28;20190;-90
2023/03/09 03:50:19;;;;;;;33.07;16.40;;;3.00;99.90;;;;;;7806545;28;20217;-90
2023/03/09 03:54:05;;;;;;;33.33;15.97;;;3.00;99.90;;;;;;7808353;28;20194;-90
2023/03/09 03:57:51;;;;;;;31.97;16.33;;;3.10;99.90;;;;;;7826815;28;20186;-90
2023/03/09 04:01:36;;;;;;;41.50;21.40;;;3.10;99.90;;;;;;7828229;28;20265;-90
2023/03/09 04:05:22;;;;;;;51.73;25.77;;;3.00;99.90;;;;;;7806771;28;20214;-90
2023/03/09 04:09:08;;;;;;;38.57;19.07;;;3.10;99.90;;;;;;7829075;28;20200;-91
2023/03/09 04:12:55;;;;;;;36.90;20.60;;;3.10;99.90;;;;;;7837220;28;20241;-90
2023/03/09 04:16:41;;;;;;;36.63;21.40;;;3.10;99.90;;;;;;7837453;28;20742;-90
2023/03/09 04:20:27;;;;;;;34.50;18.40;;;3.10;99.90;;;;;;7837443;28;20190;-90
2023/03/09 04:24:12;;;;;;;37.83;18.07;;;3.10;99.90;;;;;;7831442;28;20597;-90
2023/03/09 04:27:58;;;;;;;36.80;17.50;;;3.10;99.90;;;;;;7808861;28;20262;-90
2023/03/09 04:31:44;;;;;;;33.50;17.00;;;3.10;99.90;;;;;;7824416;28;20259;-90
2023/03/09 04:35:29;;;;;;;34.57;16.97;;;3.20;99.90;;;;;;7831834;28;20213;-90
2023/03/09 04:39:15;;;;;;;34.53;16.43;;;3.20;99.90;;;;;;7843116;28;20174;-90
2023/03/09 04:43:02;;;;;;;30.40;14.63;;;3.20;99.90;;;;;;7835176;28;20848;-90
2023/03/09 04:46:47;;;;;;;30.07;15.47;;;3.20;99.90;;;;;;7844171;28;20252;-90
2023/03/09 04:50:33;;;;;;;30.73;15.17;;;3.20;99.90;;;;;;7842786;28;20206;-90
2023/03/09 04:54:18;;;;;;;31.17;15.60;;;3.20;99.90;;;;;;7842612;28;20205;-91
2023/03/09 04:58:04;;;;;;;30.40;16.10;;;3.10;99.90;;;;;;7841865;28;20181;-90
2023/03/09 05:02:03;;;;;;;29.93;15.17;;;3.20;99.90;;;;;;7824263;28;20191;-90
2023/03/09 05:05:55;;;;;;;27.60;14.63;;;3.00;99.90;;;;;;7841631;28;20547;-90
2023/03/09 05:09:40;;;;;;;29.10;14.03;;;3.00;99.90;;;;;;7838280;28;20962;-90
2023/03/09 05:13:27;;;;;;;41.83;20.80;;;3.10;99.90;;;;;;7835689;28;20750;-91
2023/03/09 05:17:12;;;;;;;31.93;16.83;;;3.20;99.90;;;;;;7842495;28;20182;-91
2023/03/09 05:20:58;;;;;;;21.63;12.70;;;3.10;99.90;;;;;;7836037;28;20240;-88
2023/03/09 05:24:43;;;;;;;21.47;11.27;;;3.00;99.90;;;;;;7844662;28;20190;-89
2023/03/09 05:28:30;;;;;;;21.50;11.73;;;3.00;99.90;;;;;;7864097;28;20201;-90
2023/03/09 05:32:16;;;;;;;21.07;10.53;;;3.10;99.90;;;;;;7840464;28;20224;-89
2023/03/09 05:36:20;;;;;;;18.40;9.73;;;3.00;99.90;;;;;;7830007;28;20178;-90
2023/03/09 05:40:08;;;;;;;19.77;9.17;;;3.10;99.90;;;;;;7842385;28;20178;-90
2023/03/09 05:43:53;;;;;;;15.43;8.37;;;3.00;99.90;;;;;;7830339;28;20214;-88
2023/03/09 05:47:48;;;;;;;14.43;8.30;;;3.00;99.90;;;;;;7831490;28;20216;-91
2023/03/09 05:51:34;;;;;;;13.63;7.20;;;3.00;99.90;;;;;;7829537;28;20202;-90
2023/03/09 05:55:20;;;;;;;11.40;6.97;;;3.00;99.90;;;;;;7840713;28;20202;-91
2023/03/09 05:59:05;;;;;;;11.53;6.50;;;3.00;99.90;;;;;;7833070;28;20189;-90
2023/03/09 06:02:56;;;;;;;11.80;7.40;;;3.10;99.90;;;;;;7839837;28;20233;-90
2023/03/09 06:06:42;;;;;;;12.23;6.73;;;3.00;99.90;;;;;;7841678;28;20241;-84
2023/03/09 06:10:27;;;;;;;33.93;17.77;;;3.10;99.90;;;;;;7814092;28;20207;-90
2023/03/09 06:14:13;;;;;;;23.83;14.00;;;3.00;99.90;;;;;;7813303;28;20285;-90
2023/03/09 06:17:59;;;;;;;14.17;8.70;;;3.00;99.90;;;;;;7838319;28;20177;-90
2023/03/09 06:21:44;;;;;;;12.70;8.10;;;3.00;99.90;;;;;;7825174;28;20270;-90
2023/03/09 06:25:30;;;;;;;12.17;7.50;;;3.00;99.90;;;;;;7825783;28;20206;-90
2023/03/09 06:29:22;;;;;;;17.63;9.97;;;3.00;99.90;;;;;;7835700;28;20231;-90
2023/03/09 06:33:08;;;;;;;14.67;9.53;;;3.00;99.90;;;;;;7808345;28;20696;-90
2023/03/09 06:36:53;;;;;;;14.57;7.63;;;3.00;99.90;;;;;;7808509;28;20776;-90
2023/03/09 06:40:39;;;;;;;14.07;7.93;;;3.00;99.90;;;;;;7808231;28;20714;-90
2023/03/09 06:44:24;;;;;;;21.10;12.33;;;3.00;99.90;;;;;;7830127;28;20691;-90
2023/03/09 06:48:10;;;;;;;28.27;16.30;;;3.00;99.90;;;;;;7829673;28;20313;-90
2023/03/09 06:51:57;;;;;;;27.10;15.03;;;3.10;99.90;;;;;;7835167;28;20284;-91
2023/03/09 06:55:46;;;;;;;25.90;12.43;;;3.00;99.90;;;;;;7838700;28;20198;-90
2023/03/09 06:59:31;;;;;;;15.77;8.93;;;3.10;99.90;;;;;;7840067;28;20241;-90
2023/03/09 07:03:18;;;;;;;18.03;8.80;;;3.10;99.90;;;;;;7838639;28;20694;-90
2023/03/09 07:07:04;;;;;;;14.87;8.33;;;3.10;99.90;;;;;;7830567;28;20231;-90
2023/03/09 07:10:49;;;;;;;20.10;11.30;;;3.20;99.90;;;;;;7838035;28;20347;-90
2023/03/09 07:14:35;;;;;;;28.07;8.40;;;3.20;99.90;;;;;;7838324;28;20249;-90
2023/03/09 07:18:21;;;;;;;34.77;8.57;;;3.20;99.90;;;;;;7823036;28;20230;-89
2023/03/09 07:22:09;;;;;;;18.00;10.17;;;3.20;99.90;;;;;;7816705;28;20183;-90
2023/03/09 07:25:59;;;;;;;18.53;10.83;;;3.30;99.90;;;;;;7841402;28;20163;-90
2023/03/09 07:29:45;;;;;;;15.10;9.50;;;3.20;99.90;;;;;;7807818;28;20644;-89
2023/03/09 07:33:31;;;;;;;16.13;9.20;;;3.10;99.90;;;;;;7807997;28;20221;-89
2023/03/09 07:37:17;;;;;;;13.70;7.63;;;3.00;99.90;;;;;;7819193;28;20206;-89
2023/03/09 07:41:02;;;;;;;16.60;7.87;;;3.00;99.90;;;;;;7830922;28;20186;-89
2023/03/09 07:45:13;;;;;;;13.90;8.07;;;3.00;99.90;;;;;;7820898;28;20285;-89
2023/03/09 07:48:59;;;;;;;12.60;7.27;;;3.00;99.90;;;;;;7806803;28;20175;-90
2023/03/09 07:52:44;;;;;;;11.60;7.33;;;2.90;99.90;;;;;;7808719;28;20305;-90
2023/03/09 07:56:30;;;;;;;9.07;5.40;;;3.00;99.90;;;;;;7821899;28;20218;-90
2023/03/09 08:00:22;;;;;;;9.80;5.47;;;2.80;99.90;;;;;;7807942;28;20179;-90
2023/03/09 08:04:08;;;;;;;10.83;5.87;;;3.00;99.90;;;;;;7826233;28;20201;-89
2023/03/09 08:07:54;;;;;;;21.00;9.00;;;3.10;99.90;;;;;;7839933;28;20268;-89
2023/03/09 08:11:39;;;;;;;46.87;9.60;;;3.00;99.90;;;;;;7844773;28;20201;-89
2023/03/09 08:15:25;;;;;;;15.57;8.13;;;3.00;99.90;;;;;;7831760;28;20647;-91
2023/03/09 08:19:11;;;;;;;10.73;6.87;;;2.90;99.90;;;;;;7844662;28;20170;-90
2023/03/09 08:22:56;;;;;;;9.03;6.00;;;3.00;99.90;;;;;;7837689;28;20293;-91
2023/03/09 08:27:17;;;;;;;10.47;6.03;;;2.90;99.90;;;;;;7842980;28;20624;-91
2023/03/09 08:31:03;;;;;;;14.83;6.40;;;2.80;99.90;;;;;;7843031;28;20206;-90
2023/03/09 08:34:49;;;;;;;13.30;6.57;;;2.80;99.90;;;;;;7834222;28;20771;-91
2023/03/09 08:38:35;;;;;;;14.87;7.87;;;2.90;99.90;;;;;;7839715;28;20186;-90
2023/03/09 08:42:21;;;;;;;53.37;10.10;;;2.80;99.90;;;;;;7835429;28;20277;-90
2023/03/09 08:46:07;;;;;;;78.57;10.67;;;2.70;99.90;;;;;;7830902;28;20186;-90
2023/03/09 08:49:53;;;;;;;16.70;6.53;;;2.60;99.90;;;;;;7843179;28;20214;-90
2023/03/09 08:53:38;;;;;;;17.47;7.83;;;2.70;99.90;;;;;;7836991;28;20229;-91
2023/03/09 08:57:24;;;;;;;13.90;6.73;;;2.60;99.90;;;;;;7835507;28;20193;-90
2023/03/09 09:01:10;;;;;;;22.00;8.43;;;2.60;99.90;;;;;;7841863;28;20196;-90
2023/03/09 09:04:55;;;;;;;16.20;7.70;;;2.50;99.90;;;;;;7834879;28;20209;-90
2023/03/09 09:08:44;;;;;;;13.17;6.70;;;2.40;99.90;;;;;;7831967;28;20217;-91
2023/03/09 09:12:32;;;;;;;18.03;9.60;;;2.40;99.90;;;;;;7841880;28;20214;-91
2023/03/09 09:16:17;;;;;;;16.30;7.93;;;2.40;99.90;;;;;;7816508;28;20225;-90
2023/03/09 09:20:04;;;;;;;17.93;8.93;;;2.40;99.90;;;;;;7824978;28;20166;-90
2023/03/09 09:23:50;;;;;;;16.73;8.80;;;2.40;99.90;;;;;;7852202;28;20205;-91
2023/03/09 09:27:36;;;;;;;20.17;9.00;;;2.40;99.90;;;;;;7835887;28;20272;-91
2023/03/09 09:31:23;;;;;;;15.73;8.83;;;2.30;99.90;;;;;;7841647;28;20202;-89
2023/03/09 09:35:10;;;;;;;15.97;8.47;;;2.40;99.90;;;;;;7826340;28;20202;-90
2023/03/09 09:38:57;;;;;;;18.33;9.47;;;2.40;99.90;;;;;;7810606;28;20210;-91
2023/03/09 09:42:43;;;;;;;20.50;9.93;;;2.40;99.90;;;;;;7814023;28;20254;-90
2023/03/09 09:46:31;;;;;;;15.47;8.87;;;2.50;99.90;;;;;;7817709;28;20259;-90
2023/03/09 09:50:17;;;;;;;15.80;8.50;;;2.50;99.90;;;;;;7834214;28;20194;-90
2023/03/09 09:54:25;;;;;;;13.23;8.70;;;2.60;99.90;;;;;;7827344;28;20683;-90
2023/03/09 09:58:33;;;;;;;16.90;8.97;;;2.60;99.90;;;;;;7828094;28;20190;-91
2023/03/09 10:02:41;;;;;;;15.27;8.10;;;2.70;99.90;;;;;;7840483;28;20190;-89
2023/03/09 10:06:28;;;;;;;17.10;8.63;;;2.60;99.90;;;;;;7822129;28;20281;-88
2023/03/09 10:10:20;;;;;;;18.00;9.47;;;2.60;99.90;;;;;;7831825;28;20632;-91
2023/03/09 10:14:29;;;;;;;16.07;8.37;;;2.50;99.90;;;;;;7811533;28;20202;-90
2023/03/09 10:18:19;;;;;;;18.13;9.97;;;2.60;99.90;;;;;;7836874;28;20603;-90
2023/03/09 10:22:13;;;;;;;17.13;8.60;;;2.60;99.90;;;;;;7839517;28;20186;-90
2023/03/09 10:26:17;;;;;;;18.17;10.07;;;2.70;99.90;;;;;;7824006;28;20597;-91
2023/03/09 10:30:42;;;;;;;17.33;9.10;;;2.90;99.90;;;;;;7839671;28;20182;-91
2023/03/09 10:34:29;;;;;;;16.67;8.63;;;2.90;99.90;;;;;;7839444;28;20217;-91
2023/03/09 10:38:20;;;;;;;17.00;8.57;;;3.00;99.90;;;;;;7823954;28;20178;-91
2023/03/09 10:42:34;;;;;;;18.13;9.27;;;3.20;99.90;;;;;;7842662;28;20170;-90
2023/03/09 10:46:22;;;;;;;18.13;8.70;;;3.20;99.90;;;;;;7832711;28;20182;-90
2023/03/09 10:50:11;;;;;;;20.33;10.17;;;3.20;99.90;;;;;;7832706;28;20605;-91
2023/03/09 10:54:43;;;;;;;16.47;9.37;;;3.30;99.90;;;;;;7840171;28;20202;-91
2023/03/09 10:58:29;;;;;;;14.03;8.67;;;3.20;99.90;;;;;;7836206;28;20201;-90
2023/03/09 11:02:30;;;;;;;17.03;9.77;;;3.20;99.90;;;;;;7834872;28;20236;-90
2023/03/09 11:06:15;;;;;;;17.57;9.53;;;3.30;99.90;;;;;;7838677;28;20193;-92
2023/03/09 11:10:04;;;;;;;16.23;9.23;;;3.30;99.90;;;;;;7838774;28;20289;-90
2023/03/09 11:13:51;;;;;;;17.43;9.33;;;3.40;99.90;;;;;;7829407;28;20295;-90
2023/03/09 11:17:42;;;;;;;17.77;9.87;;;3.40;99.90;;;;;;7836400;28;20170;-91
2023/03/09 11:21:28;;;;;;;17.60;10.37;;;3.50;99.90;;;;;;7875377;28;20230;-90
2023/03/09 11:25:21;;;;;;;22.10;10.67;;;3.50;99.90;;;;;;7840487;28;20204;-91
2023/03/09 11:29:29;;;;;;;19.27;10.03;;;3.60;99.90;;;;;;7841718;28;20170;-90
2023/03/09 11:33:18;;;;;;;18.53;9.30;;;3.60;99.90;;;;;;7841227;28;20213;-91
2023/03/09 11:37:08;;;;;;;17.10;9.93;;;3.60;99.90;;;;;;7837918;28;20190;-91
2023/03/09 11:41:20;;;;;;;21.43;11.17;;;3.70;99.90;;;;;;7836639;28;20190;-91
2023/03/09 11:45:29;;;;;;;17.47;10.03;;;3.70;99.90;;;;;;7838234;28;20232;-91
2023/03/09 11:49:23;;;;;;;15.60;9.03;;;3.80;99.90;;;;;;7837472;28;20189;-90
2023/03/09 11:53:24;;;;;;;20.20;12.57;;;3.80;99.90;;;;;;7838707;28;20209;-91
2023/03/09 11:57:17;;;;;;;14.47;9.00;;;3.80;99.90;;;;;;7837857;28;20288;-91
2023/03/09 12:01:33;;;;;;;18.93;9.97;;;3.80;99.90;;;;;;7838131;28;20651;-91
2023/03/09 12:05:20;;;;;;;21.03;12.87;;;3.80;99.90;;;;;;7837521;28;20225;-92
2023/03/09 12:09:15;;;;;;;16.40;9.57;;;3.90;99.90;;;;;;7837151;28;20270;-90
2023/03/09 12:13:45;;;;;;;14.33;8.90;;;3.90;99.90;;;;;;7837281;28;20217;-88
2023/03/09 12:17:37;;;;;;;15.27;8.97;;;4.00;99.90;;;;;;7808766;28;20244;-91
2023/03/09 12:21:41;;;;;;;16.23;9.73;;;4.10;99.90;;;;;;7803642;28;20289;-91
2023/03/09 12:25:28;;;;;;;14.77;9.57;;;4.10;99.90;;;;;;7807119;28;20212;-90
2023/03/09 12:29:13;;;;;;;13.93;8.17;;;4.10;99.90;;;;;;7817979;28;20755;-91
2023/03/09 12:33:01;;;;;;;15.20;9.00;;;4.10;99.90;;;;;;7817651;28;20252;-91
2023/03/09 12:36:47;;;;;;;15.03;8.27;;;4.10;99.90;;;;;;7817704;28;20170;-91
2023/03/09 12:40:35;;;;;;;15.00;8.43;;;4.00;99.90;;;;;;7814674;28;20183;-91
2023/03/09 12:44:52;;;;;;;12.07;7.57;;;4.00;99.90;;;;;;7809272;28;20329;-91
2023/03/09 12:48:37;;;;;;;17.13;9.47;;;4.00;99.90;;;;;;7806276;28;20189;-91
2023/03/09 12:52:47;;;;;;;57.50;31.27;;;4.00;99.90;;;;;;7841762;28;20210;-91
2023/03/09 12:56:33;;;;;;;15.90;9.90;;;4.10;99.90;;;;;;7842656;28;20174;-92
2023/03/09 13:00:48;;;;;;;12.47;8.20;;;4.10;99.90;;;;;;7842699;28;20174;-91
2023/03/09 13:04:34;;;;;;;41.30;23.50;;;4.30;99.90;;;;;;7842682;28;20194;-90
2023/03/09 13:08:32;;;;;;;29.97;17.07;;;4.30;99.90;;;;;;7829830;28;20185;-92
2023/03/09 13:12:33;;;;;;;15.77;10.00;;;4.30;99.90;;;;;;7843236;28;20213;-93
2023/03/09 13:16:31;;;;;;;12.80;7.87;;;4.30;99.90;;;;;;7854865;28;20262;-92
2023/03/09 13:20:23;;;;;;;24.17;12.57;;;4.40;99.90;;;;;;7872710;28;20253;-92
2023/03/09 13:24:26;;;;;;;15.37;9.77;;;4.40;99.90;;;;;;7842551;28;20602;-91
2023/03/09 13:28:17;;;;;;;13.90;8.27;;;4.40;99.90;;;;;;7837013;28;20202;-91
2023/03/09 13:32:21;;;;;;;12.43;7.57;;;4.50;99.90;;;;;;7811322;28;20202;-92
2023/03/09 13:36:23;;;;;;;14.00;7.27;;;4.50;99.90;;;;;;7811419;28;20173;-91
2023/03/09 13:40:29;;;;;;;12.40;7.37;;;4.60;99.90;;;;;;7817922;28;20174;-91
2023/03/09 13:44:23;;;;;;;11.83;7.37;;;4.60;99.90;;;;;;7810810;28;20236;-91
2023/03/09 13:48:12;;;;;;;15.90;8.60;;;4.60;99.90;;;;;;7812823;28;20186;-93
2023/03/09 13:52:16;;;;;;;12.77;8.00;;;4.80;99.90;;;;;;7811073;28;20691;-92
2023/03/09 13:56:04;;;;;;;253.07;83.07;;;4.70;99.90;;;;;;7811682;28;20198;-91
2023/03/09 13:59:57;;;;;;;128.90;48.43;;;4.60;99.90;;;;;;7836499;28;20186;-91
2023/03/09 14:03:47;;;;;;;38.93;18.60;;;4.70;99.90;;;;;;7842060;28;20212;-92
2023/03/09 14:08:04;;;;;;;22.50;12.03;;;4.60;99.90;;;;;;7843513;28;20262;-92
2023/03/09 14:11:49;;;;;;;13.60;8.67;;;4.70;99.90;;;;;;7825802;28;20214;-91
2023/03/09 14:15:35;;;;;;;13.10;8.27;;;4.60;99.90;;;;;;7821165;28;20264;-91
2023/03/09 14:19:32;;;;;;;15.63;10.07;;;4.70;99.90;;;;;;7821672;28;20204;-92
2023/03/09 14:23:41;;;;;;;13.47;8.30;;;4.70;99.90;;;;;;7822011;28;20209;-92
2023/03/09 14:27:29;;;;;;;15.97;8.47;;;4.70;99.90;;;;;;7821089;28;20261;-91
2023/03/09 14:31:21;;;;;;;15.70;8.77;;;4.80;99.90;;;;;;7820688;28;20203;-91
2023/03/09 14:35:35;;;;;;;14.47;9.17;;;4.80;99.90;;;;;;7821081;28;20259;-92
2023/03/09 14:39:41;;;;;;;13.07;8.30;;;4.80;99.90;;;;;;7819519;28;20228;-93
2023/03/09 14:43:42;;;;;;;14.17;10.07;;;4.80;99.90;;;;;;7801222;28;20218;-92
2023/03/09 14:47:28;;;;;;;17.43;10.37;;;4.80;99.90;;;;;;7808489;28;20543;-91
2023/03/09 14:51:20;;;;;;;16.83;10.33;;;4.80;99.90;;;;;;7822707;28;20205;-92
2023/03/09 14:55:16;;;;;;;16.50;9.60;;;4.90;99.90;;;;;;7839574;28;20616;-91
2023/03/09 14:59:20;;;;;;;17.33;10.20;;;4.90;99.90;;;;;;7839167;28;20260;-92
2023/03/09 15:03:07;;;;;;;20.87;12.57;;;4.90;99.90;;;;;;7839184;28;20201;-91
2023/03/09 15:06:52;;;;;;;22.00;13.00;;;4.90;99.90;;;;;;7839563;28;20190;-91
2023/03/09 15:10:38;;;;;;;19.60;11.57;;;4.90;99.90;;;;;;7840082;28;20225;-92
2023/03/09 15:14:31;;;;;;;24.33;12.87;;;4.90;99.90;;;;;;7855743;28;20228;-91
2023/03/09 15:18:17;;;;;;;23.30;13.30;;;4.90;99.90;;;;;;7881036;28;20162;-90
2023/03/09 15:22:03;;;;;;;21.90;13.53;;;4.90;99.90;;;;;;7856935;28;20245;-91
2023/03/09 15:25:56;;;;;;;28.77;17.50;;;4.90;99.90;;;;;;7841850;28;20202;-91
2023/03/09 15:29:42;;;;;;;19.70;12.30;;;4.90;99.90;;;;;;7837891;28;20182;-91
2023/03/09 15:33:28;;;;;;;23.00;13.57;;;4.80;99.90;;;;;;7838289;28;20225;-90
2023/03/09 15:37:13;;;;;;;16.73;10.43;;;4.90;99.90;;;;;;7839554;28;20186;-91
2023/03/09 15:40:59;;;;;;;18.70;11.63;;;4.90;99.90;;;;;;7838511;28;20186;-91
2023/03/09 15:44:44;;;;;;;16.53;8.87;;;5.00;99.90;;;;;;7838452;28;20576;-91
2023/03/09 15:48:30;;;;;;;17.00;9.27;;;4.90;99.90;;;;;;7837995;28;20193;-90
2023/03/09 15:52:21;;;;;;;14.57;9.13;;;5.10;99.90;;;;;;7827682;28;20210;-90
2023/03/09 15:56:22;;;;;;;18.27;9.17;;;5.00;99.90;;;;;;7836419;28;20185;-91
2023/03/09 16:00:22;;;;;;;71.10;33.77;;;4.90;99.90;;;;;;7830217;28;20180;-91
2023/03/09 16:04:19;;;;;;;26.43;15.23;;;5.00;99.90;;;;;;7837816;28;20758;-91
2023/03/09 16:08:12;;;;;;;15.00;8.50;;;5.00;99.90;;;;;;7837146;28;20185;-92
2023/03/09 16:11:58;;;;;;;14.80;7.90;;;5.00;99.90;;;;;;7835020;28;20206;-84
2023/03/09 16:15:48;;;;;;;11.27;6.80;;;5.10;99.90;;;;;;7824303;28;20698;-88
2023/03/09 16:19:34;;;;;;;10.57;6.97;;;4.90;99.90;;;;;;7850945;28;20178;-91
2023/03/09 16:23:33;;;;;;;10.10;6.90;;;5.00;99.90;;;;;;7839204;28;20277;-91
2023/03/09 16:27:32;;;;;;;12.27;7.70;;;5.00;99.90;;;;;;7844595;28;20174;-91
2023/03/09 16:31:23;;;;;;;11.17;6.57;;;4.90;99.90;;;;;;7844157;28;20212;-91
2023/03/09 16:35:11;;;;;;;11.57;7.27;;;4.90;99.90;;;;;;7844295;28;20198;-92
2023/03/09 16:39:00;;;;;;;10.17;6.20;;;4.90;99.90;;;;;;7846826;28;20174;-91
2023/03/09 16:42:46;;;;;;;11.63;6.70;;;4.90;99.90;;;;;;7856331;28;20209;-92
2023/03/09 16:46:33;;;;;;;9.67;5.97;;;4.90;99.90;;;;;;7844589;28;20186;-92
2023/03/09 16:50:58;;;;;;;13.37;8.73;;;4.90;99.90;;;;;;7843221;28;20189;-91
2023/03/09 16:54:43;;;;;;;9.50;6.60;;;4.90;99.90;;;;;;7834295;28;20251;-85
2023/03/09 16:58:30;;;;;;;10.47;7.07;;;4.90;99.90;;;;;;7842482;28;20225;-87
2023/03/09 17:02:16;;;;;;;15.30;8.83;;;4.90;99.90;;;;;;7834540;28;20178;-86
2023/03/09 17:06:02;;;;;;;16.07;10.50;;;4.90;99.90;;;;;;7844028;28;20182;-84
2023/03/09 17:09:48;;;;;;;18.50;12.40;;;4.90;99.90;;;;;;7845322;28;20185;-91
2023/03/09 17:13:33;;;;;;;20.07;13.87;;;4.90;99.90;;;;;;7880758;28;20210;-94
2023/03/09 17:17:19;;;;;;;29.13;18.07;;;4.80;99.90;;;;;;7851319;28;20644;-91
2023/03/09 17:21:10;;;;;;;18.57;11.47;;;4.90;99.90;;;;;;7842904;28;20556;-91
2023/03/09 17:24:57;;;;;;;18.80;12.90;;;5.00;99.90;;;;;;7841866;28;20687;-91
2023/03/09 17:28:43;;;;;;;18.87;11.00;;;4.80;99.90;;;;;;7841997;28;20186;-91
2023/03/09 17:32:28;;;;;;;27.97;15.53;;;4.90;99.90;;;;;;7843423;28;20225;-92
2023/03/09 17:36:16;;;;;;;21.70;13.73;;;4.90;99.90;;;;;;7835820;28;20190;-92
2023/03/09 17:40:06;;;;;;;15.40;9.70;;;4.80;99.90;;;;;;7831999;28;20276;-91
2023/03/09 17:43:52;;;;;;;15.37;9.00;;;4.90;99.90;;;;;;7842565;28;20201;-91
2023/03/09 17:47:37;;;;;;;14.43;9.13;;;5.00;99.90;;;;;;7841324;28;20202;-91
2023/03/09 17:51:23;;;;;;;13.70;8.50;;;4.90;99.90;;;;;;7841159;28;20198;-91
2023/03/09 17:55:09;;;;;;;13.27;7.53;;;4.90;99.90;;;;;;7841415;28;20194;-92
2023/03/09 17:58:54;;;;;;;15.20;8.63;;;5.00;99.90;;;;;;7814859;28;20205;-91
2023/03/09 18:02:40;;;;;;;14.73;8.57;;;5.00;99.90;;;;;;7810012;28;20254;-91
2023/03/09 18:06:31;;;;;;;13.90;8.73;;;5.00;99.90;;;;;;7809962;28;20182;-91
2023/03/09 18:10:17;;;;;;;51.43;28.83;;;4.90;99.90;;;;;;7810470;28;20274;-91
2023/03/09 18:14:06;;;;;;;36.37;22.27;;;5.00;99.90;;;;;;7809304;28;20272;-91
2023/03/09 18:17:51;;;;;;;26.17;14.83;;;5.00;99.90;;;;;;7828268;28;20183;-91
2023/03/09 18:21:39;;;;;;;16.37;9.80;;;4.90;99.90;;;;;;7841529;28;20189;-91
2023/03/09 18:25:25;;;;;;;20.77;9.63;;;4.90;99.90;;;;;;7835617;28;20221;-84
2023/03/09 18:29:11;;;;;;;14.57;9.60;;;4.80;99.90;;;;;;7838257;28;20675;-91
2023/03/09 18:32:57;;;;;;;18.17;9.53;;;4.90;99.90;;;;;;7839570;28;20217;-91
2023/03/09 18:36:55;;;;;;;13.80;8.87;;;4.90;99.90;;;;;;7839830;28;20228;-91
2023/03/09 18:40:41;;;;;;;14.90;8.93;;;5.00;99.90;;;;;;7840303;28;20696;-91
2023/03/09 18:44:27;;;;;;;15.00;8.53;;;5.00;99.90;;;;;;7839717;28;20606;-93
2023/03/09 18:48:29;;;;;;;18.77;10.03;;;5.00;99.90;;;;;;7838697;28;20188;-92
2023/03/09 18:52:15;;;;;;;15.30;8.97;;;4.90;99.90;;;;;;7838891;28;20194;-91
2023/03/09 18:56:15;;;;;;;17.40;9.83;;;5.00;99.90;;;;;;7839219;28;20181;-91
2023/03/09 19:00:01;;;;;;;19.57;10.17;;;5.10;99.90;;;;;;7839970;28;20212;-91
2023/03/09 19:04:32;;;;;;;24.73;12.40;;;4.90;99.90;;;;;;7836650;28;20205;-91
2023/03/09 19:08:19;;;;;;;14.10;9.07;;;4.90;99.90;;;;;;7836513;28;20186;-93
2023/03/09 19:12:06;;;;;;;14.90;8.53;;;4.90;99.90;;;;;;7878957;28;20217;-91
2023/03/09 19:15:52;;;;;;;11.13;6.97;;;4.90;99.90;;;;;;7841227;28;20202;-91
2023/03/09 19:19:38;;;;;;;44.97;24.60;;;4.80;99.90;;;;;;7844671;28;20182;-91
2023/03/09 19:23:24;;;;;;;20.17;12.07;;;5.00;99.90;;;;;;7846970;28;20204;-92
2023/03/09 19:27:09;;;;;;;21.03;13.60;;;4.90;99.90;;;;;;7838515;28;20808;-91
2023/03/09 19:31:03;;;;;;;27.67;17.67;;;4.90;99.90;;;;;;7837969;28;20548;-92
2023/03/09 19:34:49;;;;;;;107.33;59.73;;;5.00;99.90;;;;;;7836197;28;20202;-90
2023/03/09 19:38:34;;;;;;;27.57;16.47;;;5.00;99.90;;;;;;7824213;28;20178;-90
2023/03/09 19:42:27;;;;;;;22.77;13.77;;;4.90;99.90;;;;;;7836612;28;20212;-85
2023/03/09 19:46:44;;;;;;;24.93;16.67;;;5.00;99.90;;;;;;7838414;28;20188;-91
2023/03/09 19:50:34;;;;;;;15.13;9.57;;;5.00;99.90;;;;;;7837523;28;20273;-89